Accueil
METAR-TAF:

METAR-TAF

Aéroports :

Pyongyang, Corée du Nord

Aéroport international de Sunan

latitude: 39-02N, longitude: 125-47E, altitude: 36 m

METAR: absent

Heure: 16:38 (08:08 UTC)

Prévision

Le bulletin a été fait il y a 3 heures et 28 minutes, à 04:40 UTC
Prévision valable du 27 à 06 UTC au 28 à 06 UTC
Vent 10 kt de sud/sud-ouest
Visibilité 10 km ou plus
pas de nuages en-dessous de 1500 mètres et pas de cumulonimbus.
Evoluant progressivement
du 27 à 10 UTC au 27 à 12 UTC
Vent 6 kt de sud/sud-est
Temporairement
du 28 à 02 UTC au 28 à 06 UTC
Nuages fragmentés à une hauteur de 2300 ft

TAF: ZKPY 270440Z 2706/2806 21005MPS CAVOK BECMG 2710/2712 16003MPS TEMPO 2802/2806 BKN023

Observations et prévisions météorologiques de plus de 4000 aéroports (messages METAR et TAF).

Les stations disponibles sont représentées par des disques jaunes et rouges sur la carte.

Passer la souris dessus pour voir le nom de la station.

Cliquer dessus pour voir les observations et prévisions météorologiques.

Pour changer de carte: cliquez sur les boutons verts avec une croix noire pour zoomer, sur le bouton vert avec un tiret pour effectuer un zoom arrière, ou sur les flèches vertes pour les cartes adjacentes.


METAR-TAF: